Yakima — WCD7863 — position and weather

sailwx.info

Track history (hours):
 
Tides and Currents Weather Stations Pressure Air Temp Water Temp Dewpoint Dewpoint Depression Visibility Wind Speed Wind Dir Waves Ship Positions

Yakima

Owner: WASHINGTON, STATE OF; Dept. of Transportation, OLYMPIA, WA. More information available from US FCC via Universal Licensing System and Coast Guard Vessel Documentation Center.

Last reported at 2018-Jan-23 00:00 UTC. Time now 2018-Jan-23 00:25 UTC.
Position N 48°34' W 122°53'.

Length 117 m; draft 5.6 m.

Type: Passenger vessel. MMSI: 366772750.

Date/timePositionNaut miles runAvg speedWind from/ knotsBaromVisibWave heightAir tempDewpointWater temp
2018-Jan-23 00:00N 48°34' W 122°53'510.7
2018-Jan-22 23:30N 48°32' W 122°46'4 7.6
2018-Jan-22 23:00N 48°30' W 122°41'0 0.0
2018-Jan-22 22:17N 48°30' W 122°41'0 0.0
2018-Jan-22 22:00N 48°30' W 122°41'0 0.0
2018-Jan-22 20:28N 48°30' W 122°41'0 0.0
2018-Jan-22 19:55N 48°30' W 122°41'1 3.1
2018-Jan-22 19:30N 48°31' W 122°42'714.3
2018-Jan-22 19:00N 48°34' W 122°52'612.6
2018-Jan-22 18:31N 48°32' W 123°01'0 0.2
2018-Jan-22 18:00N 48°32' W 123°01'612.6
2018-Jan-22 17:30N 48°34' W 122°52'714.4
2018-Jan-22 17:00N 48°31' W 122°42'1 2.0
2018-Jan-22 16:29N 48°30' W 122°41'611.9
2018-Jan-22 16:01N 48°32' W 122°49'4 7.3
2018-Jan-22 15:31N 48°34' W 122°53'3 5.5
2018-Jan-22 15:01N 48°36' W 122°57'2 3.0
2018-Jan-22 14:30N 48°35' W 122°54'4 7.4
2018-Jan-22 14:01N 48°33' W 122°50'713.2
2018-Jan-22 13:30N 48°31' W 122°41'0 0.1
2018-Jan-22 12:59N 48°30' W 122°41'0 0.0
2018-Jan-22 12:30N 48°30' W 122°41'0 0.0
2018-Jan-22 11:58N 48°30' W 122°41'0 0.0
2018-Jan-22 11:30N 48°30' W 122°41'0 0.0
2018-Jan-22 10:58N 48°30' W 122°41'0 0.0
2018-Jan-22 10:29N 48°30' W 122°41'0 0.0
2018-Jan-22 10:00N 48°30' W 122°41'0 0.0
2018-Jan-22 09:30N 48°30' W 122°41'0 0.0
2018-Jan-22 09:00N 48°30' W 122°41'0 0.0
2018-Jan-22 08:30N 48°30' W 122°41'0 0.0
2018-Jan-22 08:00N 48°30' W 122°41'0 0.0
2018-Jan-22 07:30N 48°30' W 122°41'2 4.2
2018-Jan-22 07:00N 48°31' W 122°43'815.0
2018-Jan-22 06:30N 48°35' W 122°54'1 2.9
2018-Jan-22 06:00N 48°35' W 122°56'3 6.5
2018-Jan-22 05:30N 48°34' W 122°51'714.9
2018-Jan-22 05:00N 48°31' W 122°41'0 0.9
2018-Jan-22 04:30N 48°31' W 122°41'511.1
2018-Jan-22 04:01N 48°32' W 122°49'510.2
2018-Jan-22 03:30N 48°35' W 122°54'2 3.2
2018-Jan-22 03:00N 48°36' W 122°57'4 8.0
2018-Jan-22 02:31N 48°34' W 122°51'714.9
2018-Jan-22 02:01N 48°31' W 122°41'0 0.8
2018-Jan-22 01:30N 48°31' W 122°41'714.7
2018-Jan-22 01:00N 48°34' W 122°52'612.4
2018-Jan-22 00:30N 48°32' W 123°01'0 0.1
2018-Jan-22 00:00N 48°32' W 123°01'510.4
2018-Jan-21 23:30N 48°35' W 122°54'1 1.8
2018-Jan-21 23:00N 48°35' W 122°56'2 4.2
2018-Jan-21 22:30N 48°34' W 122°53'612.9
2018-Jan-21 22:00N 48°32' W 122°44'3 5.1
2018-Jan-21 21:30N 48°30' W 122°41'611.2
2018-Jan-21 21:00N 48°32' W 122°49'4 7.6
2018-Jan-21 20:30N 48°34' W 122°53'3 5.6
2018-Jan-21 20:00N 48°36' W 122°57'2 4.5
2018-Jan-21 19:30N 48°34' W 122°54'5 9.3
2018-Jan-21 19:01N 48°32' W 123°01'2 3.5
2018-Jan-21 18:30N 48°32' W 122°58'4 6.9
2018-Jan-21 18:00N 48°36' W 122°57'713.3
2018-Jan-21 17:31N 48°32' W 122°49'610.6
2018-Jan-21 16:58N 48°30' W 122°41'4 7.9
2018-Jan-21 16:30N 48°31' W 122°46'510.8
2018-Jan-21 16:00N 48°34' W 122°53'2 4.1
2018-Jan-21 15:30N 48°35' W 122°56'1 1.0
2018-Jan-21 15:00N 48°35' W 122°55'4 8.3
2018-Jan-21 14:31N 48°33' W 122°60'1 1.1
2018-Jan-21 14:01N 48°33' W 122°59'612.4
2018-Jan-21 13:31N 48°32' W 122°50'611.9
2018-Jan-21 12:58N 48°30' W 122°41'0 0.0
2018-Jan-21 12:29N 48°30' W 122°41'0 0.0
2018-Jan-21 11:50N 48°30' W 122°41'0 0.0
2018-Jan-21 11:30N 48°30' W 122°41'0 0.0
2018-Jan-21 10:58N 48°30' W 122°41'0 0.0
2018-Jan-21 10:30N 48°30' W 122°41'0 0.0
2018-Jan-21 10:00N 48°30' W 122°41'0 0.0
2018-Jan-21 09:29N 48°30' W 122°41'0 0.0
2018-Jan-21 09:00N 48°30' W 122°41'0 0.0
2018-Jan-21 08:30N 48°30' W 122°41'0 0.0
2018-Jan-21 07:59N 48°30' W 122°41'0 0.0
2018-Jan-21 07:30N 48°30' W 122°41'3 6.2
2018-Jan-21 07:00N 48°31' W 122°45'713.2
2018-Jan-21 06:30N 48°35' W 122°53'2 3.6
2018-Jan-21 06:00N 48°35' W 122°56'4 7.3
2018-Jan-21 05:31N 48°33' W 122°51'713.2
2018-Jan-21 05:00N 48°31' W 122°41'0 0.9
2018-Jan-21 04:30N 48°31' W 122°41'611.3
2018-Jan-21 04:00N 48°32' W 122°49'5 9.7
2018-Jan-21 03:30N 48°35' W 122°55'1 2.3
2018-Jan-21 03:01N 48°35' W 122°56'510.0
2018-Jan-21 02:30N 48°33' W 122°50'712.5
2018-Jan-21 01:59N 48°30' W 122°41'1 2.6
2018-Jan-21 01:31N 48°31' W 122°42'714.0
2018-Jan-21 01:00N 48°34' W 122°52'612.4
2018-Jan-21 00:30N 48°32' W 123°01'0 0.2
2018-Jan-21 00:00N 48°32' W 123°01'5 9.9
2018-Jan-20 23:30N 48°35' W 122°55'1 1.0
2018-Jan-20 23:00N 48°35' W 122°56'2 4.1
2018-Jan-20 22:31N 48°34' W 122°53'713.5
2018-Jan-20 22:01N 48°31' W 122°44'2 4.5
2018-Jan-20 21:30N 48°30' W 122°41'611.9
2018-Jan-20 21:00N 48°32' W 122°49'4 7.1
2018-Jan-20 20:30N 48°34' W 122°53'3 5.6
2018-Jan-20 20:01N 48°36' W 122°57'2 4.5
2018-Jan-20 19:30N 48°34' W 122°55'4 8.9
2018-Jan-20 19:00N 48°32' W 123°01'2 4.6
2018-Jan-20 18:31N 48°32' W 122°57'4 7.0
2018-Jan-20 18:00N 48°36' W 122°57'612.8
2018-Jan-20 17:31N 48°32' W 122°49'6 8.1
2018-Jan-20 16:48N 48°30' W 122°41'2 8.0
2018-Jan-20 16:30N 48°32' W 122°44'713.3
2018-Jan-20 16:00N 48°34' W 122°53'2 4.1
2018-Jan-20 15:30N 48°35' W 122°56'0 0.6
2018-Jan-20 15:01N 48°35' W 122°55'4 7.8
2018-Jan-20 14:30N 48°33' W 123°00'0 0.2
2018-Jan-20 14:00N 48°33' W 123°00'612.8
2018-Jan-20 13:30N 48°33' W 122°50'713.8
2018-Jan-20 13:00N 48°30' W 122°41'0 0.1
2018-Jan-20 12:08N 48°30' W 122°41'0 0.0
2018-Jan-20 11:45N 48°30' W 122°41'0 0.0
2018-Jan-20 11:10N 48°30' W 122°41'0 0.0
2018-Jan-20 10:58N 48°30' W 122°41'0 0.0
2018-Jan-20 10:30N 48°30' W 122°41'0 0.0
2018-Jan-20 10:00N 48°30' W 122°41'0 0.0
2018-Jan-20 09:27N 48°30' W 122°41'0 0.0
2018-Jan-20 09:00N 48°30' W 122°41'0 0.0
2018-Jan-20 08:29N 48°30' W 122°41'510.4
2018-Jan-20 08:00N 48°32' W 122°48'611.9
2018-Jan-20 07:31N 48°32' W 122°57'0 0.8
2018-Jan-20 07:00N 48°32' W 122°57'3 6.7
2018-Jan-20 06:30N 48°36' W 122°57'3 6.1
2018-Jan-20 06:00N 48°34' W 122°53'4 8.5
2018-Jan-20 05:30N 48°32' W 122°48'5 9.4
2018-Jan-20 05:00N 48°30' W 122°41'511.0
2018-Jan-20 04:30N 48°32' W 122°48'4 8.7
2018-Jan-20 04:00N 48°35' W 122°53'510.8
2018-Jan-20 03:30N 48°32' W 123°01'4 8.8
2018-Jan-20 03:00N 48°34' W 122°55'713.4
2018-Jan-20 02:30N 48°31' W 122°45'3 6.5
2018-Jan-20 02:00N 48°31' W 122°40'612.1
2018-Jan-20 01:31N 48°32' W 122°49'5 9.4
2018-Jan-20 01:00N 48°35' W 122°54'2 3.0
2018-Jan-20 00:30N 48°36' W 122°57'3 5.7
2018-Jan-20 00:01N 48°34' W 122°53'4 7.8
2018-Jan-19 23:30N 48°32' W 122°49'5 6.7
2018-Jan-19 22:42N 48°31' W 122°40'0 0.8
2018-Jan-19 22:25N 48°30' W 122°41'0 0.0
2018-Jan-19 22:00N 48°30' W 122°41'0 0.0
2018-Jan-19 21:29N 48°30' W 122°41'0 0.0
2018-Jan-19 21:00N 48°30' W 122°41'0 0.0
2018-Jan-19 20:28N 48°30' W 122°41'0 0.0
2018-Jan-19 20:00N 48°30' W 122°41'2 5.0
2018-Jan-19 19:30N 48°32' W 122°44'713.9
2018-Jan-19 19:00N 48°35' W 122°53'611.4
2018-Jan-19 18:30N 48°32' W 123°01'3 5.4
2018-Jan-19 18:01N 48°32' W 122°57'611.2
2018-Jan-19 17:30N 48°32' W 122°48'5 9.4
2018-Jan-19 16:57N 48°30' W 122°41'4 9.5
2018-Jan-19 16:30N 48°32' W 122°47'510.0
2018-Jan-19 16:00N 48°34' W 122°53'3 5.5
2018-Jan-19 15:30N 48°36' W 122°57'0 0.3
2018-Jan-19 14:59N 48°36' W 122°57'3 5.9
2018-Jan-19 14:30N 48°34' W 122°53'713.6
2018-Jan-19 14:01N 48°31' W 122°44'2 3.8
2018-Jan-19 13:24N 48°30' W 122°41'0 0.0
2018-Jan-19 13:00N 48°30' W 122°41'0 0.0
2018-Jan-19 12:28N 48°30' W 122°41'0 0.0
2018-Jan-19 12:00N 48°30' W 122°41'0 0.0
2018-Jan-19 11:28N 48°30' W 122°41'0 0.0
2018-Jan-19 11:00N 48°30' W 122°41'0 0.0
2018-Jan-19 10:29N 48°30' W 122°41'0 0.0
2018-Jan-19 09:58N 48°30' W 122°41'0 0.0
2018-Jan-19 09:30N 48°30' W 122°41'0 0.0
2018-Jan-19 09:00N 48°30' W 122°41'1 2.7
2018-Jan-19 08:30N 48°31' W 122°42'714.3
2018-Jan-19 08:00N 48°34' W 122°52'612.3
2018-Jan-19 07:30N 48°32' W 123°01'5 9.3
2018-Jan-19 07:00N 48°34' W 122°54'2 3.8
2018-Jan-19 06:30N 48°35' W 122°56'2 5.0
2018-Jan-19 06:00N 48°34' W 122°53'510.2
2018-Jan-19 05:30N 48°32' W 122°46'4 7.5
2018-Jan-19 04:59N 48°30' W 122°41'511.2
2018-Jan-19 04:30N 48°32' W 122°48'4 8.6
2018-Jan-19 04:01N 48°34' W 122°53'511.0
2018-Jan-19 03:31N 48°32' W 123°01'2 4.5
2018-Jan-19 03:00N 48°32' W 122°57'611.8
2018-Jan-19 02:30N 48°32' W 122°49'510.7
2018-Jan-19 02:00N 48°30' W 122°41'2 4.2
2018-Jan-19 01:30N 48°32' W 122°43'714.4
2018-Jan-19 01:00N 48°35' W 122°53'3 4.9
2018-Jan-19 00:28N 48°36' W 122°57'2 4.6
2018-Jan-19 00:00N 48°35' W 122°54'4 7.9
2018-Jan-18 23:30N 48°32' W 122°49'611.7
2018-Jan-18 22:59N 48°30' W 122°41'0 0.0
2018-Jan-18 22:23N 48°30' W 122°41'0 0.0
2018-Jan-18 22:00N 48°30' W 122°41'0 0.0
2018-Jan-18 21:28N 48°30' W 122°41'0 0.0
2018-Jan-18 20:58N 48°30' W 122°41'0 0.0
2018-Jan-18 20:25N 48°30' W 122°41'0 0.0
2018-Jan-18 20:00N 48°30' W 122°41'1 2.1
2018-Jan-18 19:30N 48°31' W 122°41'714.2
2018-Jan-18 19:00N 48°34' W 122°51'612.6
2018-Jan-18 18:30N 48°32' W 123°01'0 0.3
2018-Jan-18 18:00N 48°32' W 123°01'612.6
2018-Jan-18 17:30N 48°34' W 122°51'815.2
2018-Jan-18 17:00N 48°31' W 122°41'1 1.0
2018-Jan-18 16:29N 48°30' W 122°41'612.1
2018-Jan-18 16:01N 48°32' W 122°49'4 7.3
2018-Jan-18 15:30N 48°34' W 122°53'3 5.7
2018-Jan-18 15:01N 48°36' W 122°57'1 1.6
2018-Jan-18 14:30N 48°35' W 122°56'4 7.6
2018-Jan-18 14:01N 48°33' W 122°51'714.3
2018-Jan-18 13:30N 48°30' W 122°41'0 0.1
2018-Jan-18 13:00N 48°30' W 122°41'0 0.0
2018-Jan-18 12:27N 48°30' W 122°41'0 0.0
2018-Jan-18 12:00N 48°30' W 122°41'0 0.0
2018-Jan-18 11:30N 48°30' W 122°41'0 0.0
2018-Jan-18 11:00N 48°30' W 122°41'0 0.0
2018-Jan-18 10:30N 48°30' W 122°41'0 0.0
2018-Jan-18 10:00N 48°30' W 122°41'0 0.0
2018-Jan-18 09:30N 48°30' W 122°41'0 0.0
2018-Jan-18 09:00N 48°30' W 122°41'2 3.9
2018-Jan-18 08:31N 48°32' W 122°43'713.7
2018-Jan-18 08:00N 48°34' W 122°52'612.1
2018-Jan-18 07:30N 48°32' W 123°01'5 9.2
2018-Jan-18 07:00N 48°34' W 122°54'2 3.1
2018-Jan-18 06:30N 48°35' W 122°56'2 4.2
2018-Jan-18 06:00N 48°34' W 122°53'611.5
2018-Jan-18 05:30N 48°32' W 122°45'3 6.2
2018-Jan-18 04:59N 48°30' W 122°41'510.7
2018-Jan-18 04:31N 48°32' W 122°48'5 9.1
2018-Jan-18 04:00N 48°34' W 122°54'510.0
2018-Jan-18 03:30N 48°32' W 123°01'4 8.5
2018-Jan-18 03:00N 48°34' W 122°55'612.7
2018-Jan-18 02:30N 48°32' W 122°46'4 7.2
2018-Jan-18 02:00N 48°30' W 122°41'510.6
2018-Jan-18 01:30N 48°32' W 122°48'713.3
2018-Jan-18 01:00N 48°36' W 122°57'3 3.4
2018-Jan-18 00:00N 48°35' W 122°52'115.4
2018-Jan-17 23:58N 48°35' W 122°51'  
Track history (hours):
 
Tides and Currents Weather Stations Pressure Air Temp Water Temp Dewpoint Dewpoint Depression Visibility Wind Speed Wind Dir Waves Ship Positions

Yakima

Owner: WASHINGTON, STATE OF; Dept. of Transportation, OLYMPIA, WA. More information available from US FCC via Universal Licensing System and Coast Guard Vessel Documentation Center.

Last reported at 2018-Jan-23 00:00 UTC. Time now 2018-Jan-23 00:25 UTC.
Position N 48°34' W 122°53'.

Length 117 m; draft 5.6 m.

Type: Passenger vessel. MMSI: 366772750.

Date/timePositionNaut miles runAvg speedWind from/ knotsBaromVisibWave heightAir tempDewpointWater temp
2018-Jan-23 00:00N 48°34' W 122°53'510.7
2018-Jan-22 23:30N 48°32' W 122°46'4 7.6
2018-Jan-22 23:00N 48°30' W 122°41'0 0.0
2018-Jan-22 22:17N 48°30' W 122°41'0 0.0
2018-Jan-22 22:00N 48°30' W 122°41'0 0.0
2018-Jan-22 20:28N 48°30' W 122°41'0 0.0
2018-Jan-22 19:55N 48°30' W 122°41'1 3.1
2018-Jan-22 19:30N 48°31' W 122°42'714.3
2018-Jan-22 19:00N 48°34' W 122°52'612.6
2018-Jan-22 18:31N 48°32' W 123°01'0 0.2
2018-Jan-22 18:00N 48°32' W 123°01'612.6
2018-Jan-22 17:30N 48°34' W 122°52'714.4
2018-Jan-22 17:00N 48°31' W 122°42'1 2.0
2018-Jan-22 16:29N 48°30' W 122°41'611.9
2018-Jan-22 16:01N 48°32' W 122°49'4 7.3
2018-Jan-22 15:31N 48°34' W 122°53'3 5.5
2018-Jan-22 15:01N 48°36' W 122°57'2 3.0
2018-Jan-22 14:30N 48°35' W 122°54'4 7.4
2018-Jan-22 14:01N 48°33' W 122°50'713.2
2018-Jan-22 13:30N 48°31' W 122°41'0 0.1
2018-Jan-22 12:59N 48°30' W 122°41'0 0.0
2018-Jan-22 12:30N 48°30' W 122°41'0 0.0
2018-Jan-22 11:58N 48°30' W 122°41'0 0.0
2018-Jan-22 11:30N 48°30' W 122°41'0 0.0
2018-Jan-22 10:58N 48°30' W 122°41'0 0.0
2018-Jan-22 10:29N 48°30' W 122°41'0 0.0
2018-Jan-22 10:00N 48°30' W 122°41'0 0.0
2018-Jan-22 09:30N 48°30' W 122°41'0 0.0
2018-Jan-22 09:00N 48°30' W 122°41'0 0.0
2018-Jan-22 08:30N 48°30' W 122°41'0 0.0
2018-Jan-22 08:00N 48°30' W 122°41'0 0.0
2018-Jan-22 07:30N 48°30' W 122°41'2 4.2
2018-Jan-22 07:00N 48°31' W 122°43'815.0
2018-Jan-22 06:30N 48°35' W 122°54'1 2.9
2018-Jan-22 06:00N 48°35' W 122°56'3 6.5
2018-Jan-22 05:30N 48°34' W 122°51'714.9
2018-Jan-22 05:00N 48°31' W 122°41'0 0.9
2018-Jan-22 04:30N 48°31' W 122°41'511.1
2018-Jan-22 04:01N 48°32' W 122°49'510.2
2018-Jan-22 03:30N 48°35' W 122°54'2 3.2
2018-Jan-22 03:00N 48°36' W 122°57'4 8.0
2018-Jan-22 02:31N 48°34' W 122°51'714.9
2018-Jan-22 02:01N 48°31' W 122°41'0 0.8
2018-Jan-22 01:30N 48°31' W 122°41'714.7
2018-Jan-22 01:00N 48°34' W 122°52'612.4
2018-Jan-22 00:30N 48°32' W 123°01'0 0.1
2018-Jan-22 00:00N 48°32' W 123°01'510.4
2018-Jan-21 23:30N 48°35' W 122°54'1 1.8
2018-Jan-21 23:00N 48°35' W 122°56'2 4.2
2018-Jan-21 22:30N 48°34' W 122°53'612.9
2018-Jan-21 22:00N 48°32' W 122°44'3 5.1
2018-Jan-21 21:30N 48°30' W 122°41'611.2
2018-Jan-21 21:00N 48°32' W 122°49'4 7.6
2018-Jan-21 20:30N 48°34' W 122°53'3 5.6
2018-Jan-21 20:00N 48°36' W 122°57'2 4.5
2018-Jan-21 19:30N 48°34' W 122°54'5 9.3
2018-Jan-21 19:01N 48°32' W 123°01'2 3.5
2018-Jan-21 18:30N 48°32' W 122°58'4 6.9
2018-Jan-21 18:00N 48°36' W 122°57'713.3
2018-Jan-21 17:31N 48°32' W 122°49'610.6
2018-Jan-21 16:58N 48°30' W 122°41'4 7.9
2018-Jan-21 16:30N 48°31' W 122°46'510.8
2018-Jan-21 16:00N 48°34' W 122°53'2 4.1
2018-Jan-21 15:30N 48°35' W 122°56'1 1.0
2018-Jan-21 15:00N 48°35' W 122°55'4 8.3
2018-Jan-21 14:31N 48°33' W 122°60'1 1.1
2018-Jan-21 14:01N 48°33' W 122°59'612.4
2018-Jan-21 13:31N 48°32' W 122°50'611.9
2018-Jan-21 12:58N 48°30' W 122°41'0 0.0
2018-Jan-21 12:29N 48°30' W 122°41'0 0.0
2018-Jan-21 11:50N 48°30' W 122°41'0 0.0
2018-Jan-21 11:30N 48°30' W 122°41'0 0.0
2018-Jan-21 10:58N 48°30' W 122°41'0 0.0
2018-Jan-21 10:30N 48°30' W 122°41'0 0.0
2018-Jan-21 10:00N 48°30' W 122°41'0 0.0
2018-Jan-21 09:29N 48°30' W 122°41'0 0.0
2018-Jan-21 09:00N 48°30' W 122°41'0 0.0
2018-Jan-21 08:30N 48°30' W 122°41'0 0.0
2018-Jan-21 07:59N 48°30' W 122°41'0 0.0
2018-Jan-21 07:30N 48°30' W 122°41'3 6.2
2018-Jan-21 07:00N 48°31' W 122°45'713.2
2018-Jan-21 06:30N 48°35' W 122°53'2 3.6
2018-Jan-21 06:00N 48°35' W 122°56'4 7.3
2018-Jan-21 05:31N 48°33' W 122°51'713.2
2018-Jan-21 05:00N 48°31' W 122°41'0 0.9
2018-Jan-21 04:30N 48°31' W 122°41'611.3
2018-Jan-21 04:00N 48°32' W 122°49'5 9.7
2018-Jan-21 03:30N 48°35' W 122°55'1 2.3
2018-Jan-21 03:01N 48°35' W 122°56'510.0
2018-Jan-21 02:30N 48°33' W 122°50'712.5
2018-Jan-21 01:59N 48°30' W 122°41'1 2.6
2018-Jan-21 01:31N 48°31' W 122°42'714.0
2018-Jan-21 01:00N 48°34' W 122°52'612.4
2018-Jan-21 00:30N 48°32' W 123°01'0 0.2
2018-Jan-21 00:00N 48°32' W 123°01'5 9.9
2018-Jan-20 23:30N 48°35' W 122°55'1 1.0
2018-Jan-20 23:00N 48°35' W 122°56'2 4.1
2018-Jan-20 22:31N 48°34' W 122°53'713.5
2018-Jan-20 22:01N 48°31' W 122°44'2 4.5
2018-Jan-20 21:30N 48°30' W 122°41'611.9
2018-Jan-20 21:00N 48°32' W 122°49'4 7.1
2018-Jan-20 20:30N 48°34' W 122°53'3 5.6
2018-Jan-20 20:01N 48°36' W 122°57'2 4.5
2018-Jan-20 19:30N 48°34' W 122°55'4 8.9
2018-Jan-20 19:00N 48°32' W 123°01'2 4.6
2018-Jan-20 18:31N 48°32' W 122°57'4 7.0
2018-Jan-20 18:00N 48°36' W 122°57'612.8
2018-Jan-20 17:31N 48°32' W 122°49'6 8.1
2018-Jan-20 16:48N 48°30' W 122°41'2 8.0
2018-Jan-20 16:30N 48°32' W 122°44'713.3
2018-Jan-20 16:00N 48°34' W 122°53'2 4.1
2018-Jan-20 15:30N 48°35' W 122°56'0 0.6
2018-Jan-20 15:01N 48°35' W 122°55'4 7.8
2018-Jan-20 14:30N 48°33' W 123°00'0 0.2
2018-Jan-20 14:00N 48°33' W 123°00'612.8
2018-Jan-20 13:30N 48°33' W 122°50'713.8
2018-Jan-20 13:00N 48°30' W 122°41'0 0.1
2018-Jan-20 12:08N 48°30' W 122°41'0 0.0
2018-Jan-20 11:45N 48°30' W 122°41'0 0.0
2018-Jan-20 11:10N 48°30' W 122°41'0 0.0
2018-Jan-20 10:58N 48°30' W 122°41'0 0.0
2018-Jan-20 10:30N 48°30' W 122°41'0 0.0
2018-Jan-20 10:00N 48°30' W 122°41'0 0.0
2018-Jan-20 09:27N 48°30' W 122°41'0 0.0
2018-Jan-20 09:00N 48°30' W 122°41'0 0.0
2018-Jan-20 08:29N 48°30' W 122°41'510.4
2018-Jan-20 08:00N 48°32' W 122°48'611.9
2018-Jan-20 07:31N 48°32' W 122°57'0 0.8
2018-Jan-20 07:00N 48°32' W 122°57'3 6.7
2018-Jan-20 06:30N 48°36' W 122°57'3 6.1
2018-Jan-20 06:00N 48°34' W 122°53'4 8.5
2018-Jan-20 05:30N 48°32' W 122°48'5 9.4
2018-Jan-20 05:00N 48°30' W 122°41'511.0
2018-Jan-20 04:30N 48°32' W 122°48'4 8.7
2018-Jan-20 04:00N 48°35' W 122°53'510.8
2018-Jan-20 03:30N 48°32' W 123°01'4 8.8
2018-Jan-20 03:00N 48°34' W 122°55'713.4
2018-Jan-20 02:30N 48°31' W 122°45'3 6.5
2018-Jan-20 02:00N 48°31' W 122°40'612.1
2018-Jan-20 01:31N 48°32' W 122°49'5 9.4
2018-Jan-20 01:00N 48°35' W 122°54'2 3.0
2018-Jan-20 00:30N 48°36' W 122°57'3 5.7
2018-Jan-20 00:01N 48°34' W 122°53'4 7.8
2018-Jan-19 23:30N 48°32' W 122°49'5 6.7
2018-Jan-19 22:42N 48°31' W 122°40'0 0.8
2018-Jan-19 22:25N 48°30' W 122°41'0 0.0
2018-Jan-19 22:00N 48°30' W 122°41'0 0.0
2018-Jan-19 21:29N 48°30' W 122°41'0 0.0
2018-Jan-19 21:00N 48°30' W 122°41'0 0.0
2018-Jan-19 20:28N 48°30' W 122°41'0 0.0
2018-Jan-19 20:00N 48°30' W 122°41'2 5.0
2018-Jan-19 19:30N 48°32' W 122°44'713.9
2018-Jan-19 19:00N 48°35' W 122°53'611.4
2018-Jan-19 18:30N 48°32' W 123°01'3 5.4
2018-Jan-19 18:01N 48°32' W 122°57'611.2
2018-Jan-19 17:30N 48°32' W 122°48'5 9.4
2018-Jan-19 16:57N 48°30' W 122°41'4 9.5
2018-Jan-19 16:30N 48°32' W 122°47'510.0
2018-Jan-19 16:00N 48°34' W 122°53'3 5.5
2018-Jan-19 15:30N 48°36' W 122°57'0 0.3
2018-Jan-19 14:59N 48°36' W 122°57'3 5.9
2018-Jan-19 14:30N 48°34' W 122°53'713.6
2018-Jan-19 14:01N 48°31' W 122°44'2 3.8
2018-Jan-19 13:24N 48°30' W 122°41'0 0.0
2018-Jan-19 13:00N 48°30' W 122°41'0 0.0
2018-Jan-19 12:28N 48°30' W 122°41'0 0.0
2018-Jan-19 12:00N 48°30' W 122°41'0 0.0
2018-Jan-19 11:28N 48°30' W 122°41'0 0.0
2018-Jan-19 11:00N 48°30' W 122°41'0 0.0
2018-Jan-19 10:29N 48°30' W 122°41'0 0.0
2018-Jan-19 09:58N 48°30' W 122°41'0 0.0
2018-Jan-19 09:30N 48°30' W 122°41'0 0.0
2018-Jan-19 09:00N 48°30' W 122°41'1 2.7
2018-Jan-19 08:30N 48°31' W 122°42'714.3
2018-Jan-19 08:00N 48°34' W 122°52'612.3
2018-Jan-19 07:30N 48°32' W 123°01'5 9.3
2018-Jan-19 07:00N 48°34' W 122°54'2 3.8
2018-Jan-19 06:30N 48°35' W 122°56'2 5.0
2018-Jan-19 06:00N 48°34' W 122°53'510.2
2018-Jan-19 05:30N 48°32' W 122°46'4 7.5
2018-Jan-19 04:59N 48°30' W 122°41'511.2
2018-Jan-19 04:30N 48°32' W 122°48'4 8.6
2018-Jan-19 04:01N 48°34' W 122°53'511.0
2018-Jan-19 03:31N 48°32' W 123°01'2 4.5
2018-Jan-19 03:00N 48°32' W 122°57'611.8
2018-Jan-19 02:30N 48°32' W 122°49'510.7
2018-Jan-19 02:00N 48°30' W 122°41'2 4.2
2018-Jan-19 01:30N 48°32' W 122°43'714.4
2018-Jan-19 01:00N 48°35' W 122°53'3 4.9
2018-Jan-19 00:28N 48°36' W 122°57'2 4.6
2018-Jan-19 00:00N 48°35' W 122°54'4 7.9
2018-Jan-18 23:30N 48°32' W 122°49'611.7
2018-Jan-18 22:59N 48°30' W 122°41'0 0.0
2018-Jan-18 22:23N 48°30' W 122°41'0 0.0
2018-Jan-18 22:00N 48°30' W 122°41'0 0.0
2018-Jan-18 21:28N 48°30' W 122°41'0 0.0
2018-Jan-18 20:58N 48°30' W 122°41'0 0.0
2018-Jan-18 20:25N 48°30' W 122°41'0 0.0
2018-Jan-18 20:00N 48°30' W 122°41'1 2.1
2018-Jan-18 19:30N 48°31' W 122°41'714.2
2018-Jan-18 19:00N 48°34' W 122°51'612.6
2018-Jan-18 18:30N 48°32' W 123°01'0 0.3
2018-Jan-18 18:00N 48°32' W 123°01'612.6
2018-Jan-18 17:30N 48°34' W 122°51'815.2
2018-Jan-18 17:00N 48°31' W 122°41'1 1.0
2018-Jan-18 16:29N 48°30' W 122°41'612.1
2018-Jan-18 16:01N 48°32' W 122°49'4 7.3
2018-Jan-18 15:30N 48°34' W 122°53'3 5.7
2018-Jan-18 15:01N 48°36' W 122°57'1 1.6
2018-Jan-18 14:30N 48°35' W 122°56'4 7.6
2018-Jan-18 14:01N 48°33' W 122°51'714.3
2018-Jan-18 13:30N 48°30' W 122°41'0 0.1
2018-Jan-18 13:00N 48°30' W 122°41'0 0.0
2018-Jan-18 12:27N 48°30' W 122°41'0 0.0
2018-Jan-18 12:00N 48°30' W 122°41'0 0.0
2018-Jan-18 11:30N 48°30' W 122°41'0 0.0
2018-Jan-18 11:00N 48°30' W 122°41'0 0.0
2018-Jan-18 10:30N 48°30' W 122°41'0 0.0
2018-Jan-18 10:00N 48°30' W 122°41'0 0.0
2018-Jan-18 09:30N 48°30' W 122°41'0 0.0
2018-Jan-18 09:00N 48°30' W 122°41'2 3.9
2018-Jan-18 08:31N 48°32' W 122°43'713.7
2018-Jan-18 08:00N 48°34' W 122°52'612.1
2018-Jan-18 07:30N 48°32' W 123°01'5 9.2
2018-Jan-18 07:00N 48°34' W 122°54'2 3.1
2018-Jan-18 06:30N 48°35' W 122°56'2 4.2
2018-Jan-18 06:00N 48°34' W 122°53'611.5
2018-Jan-18 05:30N 48°32' W 122°45'3 6.2
2018-Jan-18 04:59N 48°30' W 122°41'510.7
2018-Jan-18 04:31N 48°32' W 122°48'5 9.1
2018-Jan-18 04:00N 48°34' W 122°54'510.0
2018-Jan-18 03:30N 48°32' W 123°01'4 8.5
2018-Jan-18 03:00N 48°34' W 122°55'612.7
2018-Jan-18 02:30N 48°32' W 122°46'4 7.2
2018-Jan-18 02:00N 48°30' W 122°41'510.6
2018-Jan-18 01:30N 48°32' W 122°48'713.3
2018-Jan-18 01:00N 48°36' W 122°57'3 3.4
2018-Jan-18 00:00N 48°35' W 122°52'115.4
2018-Jan-17 23:58N 48°35' W 122°51'  

Dump ship's entire track history